You are here

Stations

Station Name Date Time Temperature Relative Humidity Precipitation Wind Speed Wind Direction Create Custom Report Daily Report Hourly Report
A&O Farm 2026-07-05 8:30 57.3 86.40 0.03 9.98 NNE
Aberdeen VTcrn 2026-07-05 8:30 57.8 87.10 0.02 10.67 NNW
Beaumont Exp Stn 2026-07-05 8:30 66.4 97.10 0.86 5.29 NNE
Bee Lake 2026-07-05 8:30 56.6 93.40 0.00 0.77 NW
Belzoni 2026-07-05 8:30 59.8 74.72 0.00 8.14 NNE
Black Belt F24 VTcrn 2026-07-05 8:30 57.4 95.70 0.14 0.00 NNW
Blk Belt F22-23 VTso 2026-07-05 8:30 57.4 91.00 0.02 6.31 NNW
Brooksville 2026-07-05 8:30 57.3 89.60 0.06 7.61 N
Brooksville2 VTso 2026-07-05 8:30 57.0 94.60 0.66
Brown Loam Exp. Stn. 2026-07-05 8:30 58.0 89.40 0.00 1.09 NNE
Brown Loam VT1crn/so 2026-07-05 8:30 -148.0 -100.00 0.00 0.61 NE
Brown Loam VT2crn/so 2026-07-05 8:30 57.8 0.00 1.38 WNW
Canton 2026-07-05 8:29
Cary 2026-07-05 8:30 57.0 84.10 0.00 6.85 NNE
Clarksdale VTso 2026-07-05 8:30 58.0 80.40 0.00
Cleveland 2026-07-05 8:30 56.8 83.90 0.06 8.60 N
Coastal Res & Ext Cnt 2026-07-05 8:30 77.1 89.10 0.00 4.37 WSW
Como 2026-07-05 8:30 56.6 77.90 0.00 5.56 N
Cooper Farm 2026-07-05 8:30 58.1 84.30 0.00 8.44 NNE
Crystal Sprgs Exp Stn 2026-07-05 8:30 56.9 100.00 0.02 5.06 NE
Delta City 2026-07-05 8:30 58.6 76.61 0.00 11.09 NE
Dundee 2026-07-05 8:30 58.7 74.87 0.00 1.67 WSW
Greenwood 2026-07-05 8:30 59.5 78.63 0.01 3.45 ENE
Holly Bluff 2026-07-05 8:30 57.0 85.80 0.00 6.30 N
Holly Ridge 2026-07-05 8:30 57.5 82.20 0.05 9.61 NE
Home Cypress Farm 2026-07-05 8:30 57.7 76.25 0.00 0.54 NNW
Houston 2026-07-05 8:30 56.2 80.90 0.19 6.48 NNE
Lamar 2026-07-05 8:30 56.5 85.70 0.00 0.44 S
Lancaster 2026-07-05 8:30 57.8 85.30 0.06 7.15 N
Longwood VTso 2026-07-05 8:30 59.1 78.91 0.00 10.27 W
Lyon 2026-07-05 8:30 57.7 78.02 0.01 7.17 NE
Macon VTcrn 2026-07-05 8:30 58.9 95.30 0.00 5.60 NNW
Mantee VT 2026-07-05 8:30 57.1 92.60 0.03 3.81 N
McNeill 2026-07-05 8:30 67.4 95.50 0.08 4.12 NNW
Minter City VTcn 2026-07-05 8:30 58.2 82.00 0.72 2.75 ESE
Money 2026-07-05 8:30 56.6 88.80 0.29 6.38 NNE
Mound Bayou 2026-07-05 8:30 57.5 83.00 0.05 6.71 NE
MSU North Farm Starkv 2026-07-05 8:30 56.0 88.60 0.01 6.74 N
MSU South Farm Starkv 2026-07-05 8:30 55.7 87.10 0.01 10.50 NNW
Natchez 2026-07-05 8:30 59.1 91.90 0.00 1.44 NNE
Newton 2026-07-05 8:30 58.8 94.60 0.00 1.40 N
Olive Branch VTcr 2026-07-05 8:30 57.1 78.15 0.00 0.00 NNE
Olive Branch2 VTso 2026-07-05 8:30 58.3 76.73 0.04
Onward VTcrn 2026-07-05 8:30 57.5 92.40 0.00
Oxberry 2026-07-05 8:30 57.9 77.60 0.32 4.12 NNW
Pontotoc AWS COOP 2026-07-05 8:29
Pontotoc Exp Stn 2026-07-05 8:30 56.5 82.50 0.14 5.69 N
Poplarville 2026-07-05 8:30 66.1 95.50 0.34 5.13 NNW
Port Gibson 2026-07-05 8:30 59.2 99.40 0.00 0.94 NNW
Prairie 2026-07-05 8:30 55.9 90.00 0.05 6.82 NNW
Senatobia 2026-07-05 8:30 57.2 80.10 0.00 3.52 NW
Shurden Farm 2026-07-05 8:30 57.5 80.80 0.01 8.09 NE
Sidon 2026-07-05 8:30 59.1 79.28 0.01 5.38 SW
Sledge 2026-07-05 8:30 57.3 79.49 0.00 6.83 N
Stnville F7 VTcrn/so 2026-07-05 8:30 58.0 67.04 0.01
Stoneville AWS 2026-07-05 8:30 56.2 83.40 0.01 7.36 N
Stoneville F10 2026-07-05 8:30 56.9 84.20 0.02 8.72 NE
Stoneville F17 VTso 2026-07-05 8:30 57.6 79.37 0.01
Stoneville W 2026-07-05 8:30 57.4 81.50 0.01 10.78 NNE
Stoneville_F8 2026-07-05 8:30 56.7 82.30 0.02 4.98 NNE
Stoneville_SW 2026-07-05 8:30 57.5 85.40 0.01 9.69 NNE
Thighman 2026-07-05 8:30 59.6 79.94 0.02 3.83 N
Tippo VTso 2026-07-05 8:30 57.5 83.80 0.00
Tribbett 2026-07-05 8:00 56.3 93.60 0.05 9.22 N
Tunica 2026-07-05 8:30 -148.0 -100.00 0.00 7.77 NE
Vaiden 2026-07-05 8:30 57.7 83.60 0.00 4.20 ENE
Verona 2026-07-05 8:30 56.5 84.50 0.13 6.61 NE
Verona VTcrn/so 2026-07-05 8:30 56.5 89.40 0.24
Vicksburg 2026-07-05 8:30 59.1 96.60 0.04 2.65 NW
White Sand 2026-07-05 8:30 65.5 93.20 0.28 6.25 NNW
Back to Top